createdAt,value
2022-11-28T00:00:59.906Z,6.72
2022-11-28T00:03:26.496Z,6.72
2022-11-28T00:05:53.185Z,6.74
2022-11-28T00:08:19.744Z,6.71
2022-11-28T00:10:46.291Z,6.69
2022-11-28T00:13:12.897Z,6.73
2022-11-28T00:15:39.598Z,6.84
2022-11-28T00:18:06.232Z,6.86
2022-11-28T00:20:32.838Z,6.86
2022-11-28T00:22:59.750Z,6.82
2022-11-28T00:25:26.302Z,6.85
2022-11-28T00:27:52.886Z,6.87
2022-11-28T00:30:19.465Z,6.75
2022-11-28T00:32:46.019Z,6.81
2022-11-28T00:35:13.274Z,6.89
2022-11-28T00:37:39.926Z,6.83
2022-11-28T00:40:06.827Z,6.79
2022-11-28T00:42:33.321Z,6.92
2022-11-28T00:44:59.817Z,6.93
2022-11-28T00:47:26.665Z,6.95
2022-11-28T00:49:53.233Z,7.03
2022-11-28T00:52:19.726Z,7.09
2022-11-28T00:54:46.229Z,6.97
2022-11-28T00:57:12.727Z,6.91
2022-11-28T00:59:39.215Z,6.68
2022-11-28T01:02:05.862Z,6.57
2022-11-28T01:04:32.417Z,6.53
2022-11-28T01:06:58.983Z,6.49
2022-11-28T01:09:25.643Z,6.75
2022-11-28T01:11:52.969Z,6.91
2022-11-28T01:14:21.471Z,6.81
2022-11-28T01:16:48.120Z,6.62
2022-11-28T01:19:14.866Z,6.48
2022-11-28T01:21:41.566Z,6.41
2022-11-28T01:24:08.093Z,6.42
2022-11-28T01:26:34.708Z,6.60
2022-11-28T01:29:01.321Z,6.41
2022-11-28T01:31:28.512Z,6.43
2022-11-28T01:33:55.262Z,6.36
2022-11-28T01:36:22.511Z,6.37
2022-11-28T01:38:49.421Z,6.63
2022-11-28T01:41:17.471Z,6.62
2022-11-28T01:43:57.978Z,6.67
2022-11-28T01:46:24.538Z,6.72
2022-11-28T01:48:51.122Z,6.73
2022-11-28T01:51:17.598Z,6.75
2022-11-28T01:53:45.356Z,6.47
2022-11-28T01:56:19.276Z,6.48
2022-11-28T01:58:46.731Z,6.40
2022-11-28T02:01:13.418Z,6.60
2022-11-28T02:03:46.855Z,6.56
2022-11-28T02:06:14.921Z,6.39
2022-11-28T02:08:41.620Z,6.34
2022-11-28T02:11:08.403Z,6.28
2022-11-28T02:13:34.966Z,6.29
2022-11-28T02:16:04.356Z,6.32
2022-11-28T02:18:39.663Z,6.28
2022-11-28T02:21:06.222Z,6.31
2022-11-28T02:23:49.226Z,6.27
2022-11-28T02:26:15.677Z,6.29
2022-11-28T02:28:47.121Z,6.26
2022-11-28T02:31:34.566Z,6.14
2022-11-28T02:34:01.625Z,6.28
2022-11-28T02:36:29.533Z,6.20
2022-11-28T02:39:17.398Z,6.27
2022-11-28T02:41:49.995Z,6.34
2022-11-28T02:44:23.413Z,6.32
2022-11-28T02:46:53.004Z,6.36
2022-11-28T02:49:24.014Z,6.31
2022-11-28T02:51:52.414Z,6.29
2022-11-28T02:54:19.035Z,6.25
2022-11-28T02:56:52.506Z,6.35
2022-11-28T02:59:33.281Z,6.35
2022-11-28T03:02:00.043Z,6.46
2022-11-28T03:04:45.545Z,6.43
2022-11-28T03:07:41.274Z,6.46
2022-11-28T03:10:28.434Z,6.34
2022-11-28T03:13:27.759Z,6.25
2022-11-28T03:15:59.212Z,6.15
2022-11-28T03:18:46.057Z,6.09
2022-11-28T03:21:14.956Z,6.05
2022-11-28T03:23:41.394Z,6.19
2022-11-28T03:26:09.695Z,6.30
2022-11-28T03:28:47.236Z,6.34
2022-11-28T03:31:18.093Z,6.34
2022-11-28T03:33:49.162Z,6.34
2022-11-28T03:36:18.502Z,6.36
2022-11-28T03:38:45.689Z,6.17
2022-11-28T03:41:17.465Z,6.36
2022-11-28T03:43:47.092Z,6.30
2022-11-28T03:46:14.076Z,6.34
2022-11-28T03:48:41.940Z,6.29
2022-11-28T03:51:16.762Z,6.37
2022-11-28T03:53:49.481Z,6.37
2022-11-28T03:56:17.891Z,6.39
2022-11-28T03:58:54.363Z,6.45
2022-11-28T04:01:25.439Z,6.33
2022-11-28T04:03:53.726Z,6.39
2022-11-28T04:06:25.576Z,6.41
2022-11-28T04:09:02.148Z,6.37
2022-11-28T04:11:31.326Z,6.37
2022-11-28T04:13:59.305Z,6.45
2022-11-28T04:16:34.482Z,6.36
2022-11-28T04:19:00.955Z,6.36
2022-11-28T04:21:34.501Z,6.35
2022-11-28T04:24:05.629Z,6.27
2022-11-28T04:26:36.550Z,6.32
2022-11-28T04:29:04.503Z,6.30
2022-11-28T04:31:31.294Z,6.42
2022-11-28T04:33:58.888Z,6.54
2022-11-28T04:36:25.406Z,6.57
2022-11-28T04:38:56.492Z,6.53
2022-11-28T04:41:29.308Z,6.47
2022-11-28T04:44:08.100Z,6.48
2022-11-28T04:46:39.553Z,6.41
2022-11-28T04:49:06.046Z,6.43
2022-11-28T04:51:36.248Z,6.22
2022-11-28T04:54:15.046Z,6.24
2022-11-28T04:56:52.972Z,6.28
2022-11-28T04:59:19.523Z,6.41
2022-11-28T05:01:46.275Z,6.20
2022-11-28T05:04:13.573Z,6.25
2022-11-28T05:06:40.071Z,6.19
2022-11-28T05:09:06.770Z,6.21
2022-11-28T05:11:33.354Z,6.27
2022-11-28T05:14:00.415Z,6.27
2022-11-28T05:16:27.032Z,6.30
2022-11-28T05:18:53.571Z,6.32
2022-11-28T05:21:20.136Z,6.22
2022-11-28T05:23:47.437Z,6.25
2022-11-28T05:26:15.168Z,6.21
2022-11-28T05:28:45.484Z,6.14
2022-11-28T05:31:12.203Z,6.19
2022-11-28T05:33:38.766Z,6.20
2022-11-28T05:36:12.778Z,6.30
2022-11-28T05:38:40.157Z,6.38
2022-11-28T05:41:07.180Z,6.44
2022-11-28T05:43:33.699Z,6.46
2022-11-28T05:46:00.910Z,6.56
2022-11-28T05:48:27.603Z,6.54
2022-11-28T05:50:54.220Z,6.49
2022-11-28T05:53:20.774Z,6.54
2022-11-28T05:55:47.300Z,6.55
2022-11-28T05:58:13.868Z,6.49
2022-11-28T06:00:40.503Z,6.37
2022-11-28T06:03:07.211Z,6.40
2022-11-28T06:05:42.940Z,6.34
2022-11-28T06:08:13.454Z,6.33
2022-11-28T06:10:40.946Z,6.38
2022-11-28T06:13:08.118Z,6.26
2022-11-28T06:15:37.842Z,6.28
2022-11-28T06:18:05.341Z,6.44
2022-11-28T06:20:31.889Z,6.37
2022-11-28T06:22:58.460Z,6.29
2022-11-28T06:25:24.951Z,6.18
2022-11-28T06:27:51.527Z,6.22
2022-11-28T06:30:18.100Z,6.24
2022-11-28T06:32:44.632Z,6.29
2022-11-28T06:35:11.254Z,6.42
2022-11-28T06:37:37.819Z,6.36
2022-11-28T06:40:05.024Z,6.20
2022-11-28T06:42:31.696Z,6.10
2022-11-28T06:44:58.332Z,6.09
2022-11-28T06:47:24.852Z,6.21
2022-11-28T06:49:51.317Z,6.15
2022-11-28T06:52:17.828Z,6.29
2022-11-28T06:54:44.766Z,6.28
2022-11-28T06:57:11.848Z,6.11
2022-11-28T06:59:38.481Z,5.99
2022-11-28T07:02:07.791Z,6.02
2022-11-28T07:04:34.615Z,6.03
2022-11-28T07:07:01.140Z,6.00
2022-11-28T07:09:27.726Z,5.99
2022-11-28T07:11:54.333Z,6.07
2022-11-28T07:14:21.028Z,6.13
2022-11-28T07:16:49.189Z,6.22
2022-11-28T07:19:15.960Z,6.18
2022-11-28T07:21:42.554Z,6.08
2022-11-28T07:24:09.101Z,6.21
2022-11-28T07:26:38.144Z,6.25
2022-11-28T07:29:07.058Z,6.44
2022-11-28T07:31:34.013Z,6.57
2022-11-28T07:34:01.865Z,6.68
2022-11-28T07:36:28.663Z,6.65
2022-11-28T07:38:56.423Z,6.74
2022-11-28T07:41:26.543Z,6.65
2022-11-28T07:43:54.774Z,6.73
2022-11-28T07:46:21.469Z,6.71
2022-11-28T07:48:48.056Z,6.77
2022-11-28T07:51:15.760Z,6.69
2022-11-28T07:53:42.570Z,6.73
2022-11-28T07:56:10.050Z,6.75
2022-11-28T07:58:36.610Z,6.75
2022-11-28T08:01:09.931Z,6.78
2022-11-28T08:03:36.487Z,6.78
2022-11-28T08:06:03.371Z,6.83
2022-11-28T08:08:29.986Z,6.81
2022-11-28T08:11:00.602Z,6.87
2022-11-28T08:13:27.386Z,6.96
2022-11-28T08:15:54.160Z,7.12
2022-11-28T08:18:20.939Z,7.25
2022-11-28T08:20:47.479Z,7.30
2022-11-28T08:23:14.605Z,7.28
2022-11-28T08:25:41.192Z,7.31
2022-11-28T08:28:10.502Z,7.43
2022-11-28T08:30:37.137Z,7.44
2022-11-28T08:33:04.395Z,7.39
2022-11-28T08:35:31.260Z,7.45
2022-11-28T08:38:01.790Z,7.40
2022-11-28T08:40:28.930Z,7.46
2022-11-28T08:42:55.927Z,7.55
2022-11-28T08:45:22.549Z,7.65
2022-11-28T08:47:49.058Z,7.65
2022-11-28T08:50:15.613Z,7.52
2022-11-28T08:52:42.096Z,7.74
2022-11-28T08:55:09.228Z,7.95
2022-11-28T08:57:35.748Z,7.82
2022-11-28T09:00:02.350Z,7.69
2022-11-28T09:02:28.889Z,7.73
2022-11-28T09:04:55.485Z,7.91
2022-11-28T09:07:22.213Z,8.00
2022-11-28T09:09:49.262Z,8.09
2022-11-28T09:12:16.277Z,8.20
2022-11-28T09:14:42.786Z,8.30
2022-11-28T09:17:09.477Z,8.27
2022-11-28T09:19:36.233Z,8.28
2022-11-28T09:22:02.839Z,8.23
2022-11-28T09:24:29.351Z,8.29
2022-11-28T09:26:55.888Z,8.21
2022-11-28T09:29:22.540Z,8.24
2022-11-28T09:31:49.052Z,8.30
2022-11-28T09:34:15.624Z,8.22
2022-11-28T09:36:42.191Z,8.23
2022-11-28T09:39:08.803Z,8.11
2022-11-28T09:41:35.492Z,8.09
2022-11-28T09:44:03.750Z,8.22
2022-11-28T09:46:31.736Z,8.24
2022-11-28T09:48:58.860Z,8.45
2022-11-28T09:51:25.879Z,8.53
2022-11-28T09:53:55.462Z,8.65
2022-11-28T09:56:22.650Z,8.69
2022-11-28T09:58:56.066Z,8.69
2022-11-28T10:01:28.195Z,8.65
2022-11-28T10:03:56.476Z,8.65
2022-11-28T10:06:27.435Z,8.70
2022-11-28T10:09:13.353Z,8.82
2022-11-28T10:11:39.844Z,8.75
2022-11-28T10:14:13.695Z,8.81
2022-11-28T10:16:59.008Z,8.90
2022-11-28T10:19:53.893Z,9.04
2022-11-28T10:22:23.352Z,9.20
2022-11-28T10:24:54.196Z,9.26
2022-11-28T10:27:25.515Z,8.96
2022-11-28T10:29:58.557Z,9.03
2022-11-28T10:32:28.818Z,9.08
2022-11-28T10:34:58.555Z,9.22
2022-11-28T10:37:25.952Z,9.10
2022-11-28T10:39:52.546Z,9.22
2022-11-28T10:42:21.930Z,9.22
2022-11-28T10:44:48.504Z,9.24
2022-11-28T10:47:38.417Z,9.25
2022-11-28T10:50:17.767Z,9.17
2022-11-28T10:53:00.826Z,9.18
2022-11-28T10:55:36.535Z,9.23
2022-11-28T10:58:13.696Z,9.30
2022-11-28T11:00:40.292Z,9.33
2022-11-28T11:03:09.506Z,9.44
2022-11-28T11:05:36.230Z,9.48
2022-11-28T11:08:05.946Z,9.56
2022-11-28T11:10:52.934Z,9.80
2022-11-28T11:13:26.245Z,9.83
2022-11-28T11:15:59.428Z,9.91
2022-11-28T11:18:28.010Z,9.93
2022-11-28T11:21:14.829Z,10.00
2022-11-28T11:23:41.522Z,9.93
2022-11-28T11:26:11.059Z,10.03
2022-11-28T11:28:39.821Z,9.92
2022-11-28T11:31:15.133Z,9.95
2022-11-28T11:33:41.732Z,9.77
2022-11-28T11:36:19.951Z,9.48
2022-11-28T11:38:46.411Z,9.52
2022-11-28T11:41:21.515Z,9.07
2022-11-28T11:43:48.045Z,9.19
2022-11-28T11:46:15.173Z,9.28
2022-11-28T11:48:49.418Z,9.13
2022-11-28T11:51:26.519Z,9.26
2022-11-28T11:54:06.426Z,9.29
2022-11-28T11:56:36.714Z,9.28
2022-11-28T11:59:04.459Z,9.28
2022-11-28T12:01:31.267Z,9.27
2022-11-28T12:04:08.469Z,9.41
2022-11-28T12:06:41.217Z,9.26
2022-11-28T12:09:08.241Z,9.19
2022-11-28T12:11:35.852Z,9.36
2022-11-28T12:14:17.575Z,9.48
2022-11-28T12:16:57.512Z,9.51
2022-11-28T12:19:42.855Z,9.58
2022-11-28T12:22:18.233Z,9.62
2022-11-28T12:24:51.127Z,9.67
2022-11-28T12:27:35.425Z,9.59
2022-11-28T12:30:40.390Z,9.35
2022-11-28T12:33:14.256Z,9.30
2022-11-28T12:35:45.477Z,9.27
2022-11-28T12:38:22.773Z,9.43
2022-11-28T12:40:59.274Z,9.47
2022-11-28T12:43:25.799Z,9.48
2022-11-28T12:46:00.245Z,9.57
2022-11-28T12:48:29.783Z,9.60
2022-11-28T12:51:03.311Z,9.56
2022-11-28T12:53:42.940Z,9.42
2022-11-28T12:56:09.553Z,9.23
2022-11-28T12:58:41.428Z,9.30
2022-11-28T13:01:17.110Z,9.28
2022-11-28T13:04:02.316Z,9.36
2022-11-28T13:06:29.097Z,9.50
2022-11-28T13:09:02.044Z,9.37
2022-11-28T13:11:34.812Z,9.32
2022-11-28T13:14:01.435Z,9.33
2022-11-28T13:16:28.530Z,9.51
2022-11-28T13:18:58.439Z,9.60
2022-11-28T13:21:28.406Z,9.49
2022-11-28T13:24:02.231Z,9.55
2022-11-28T13:26:50.900Z,9.59
2022-11-28T13:29:17.390Z,9.53
2022-11-28T13:31:43.983Z,9.41
2022-11-28T13:34:15.931Z,9.51
2022-11-28T13:40:00.147Z,9.55
2022-11-28T13:43:07.765Z,9.52
2022-11-28T13:45:36.029Z,9.52
2022-11-28T13:48:32.278Z,9.59
2022-11-28T13:51:18.231Z,9.52
2022-11-28T13:53:46.521Z,9.39
2022-11-28T13:56:13.334Z,9.36
2022-11-28T13:58:40.073Z,9.44
2022-11-28T14:01:06.751Z,9.53
2022-11-28T14:03:34.136Z,9.45
2022-11-28T14:06:01.928Z,9.32
2022-11-28T14:08:30.955Z,9.42
2022-11-28T14:10:57.433Z,9.42
2022-11-28T14:13:24.082Z,9.33
2022-11-28T14:15:50.870Z,9.37
2022-11-28T14:21:23.029Z,9.49
2022-11-28T14:24:03.859Z,9.58
2022-11-28T14:26:36.384Z,9.55
2022-11-28T14:29:03.490Z,9.51
2022-11-28T14:31:34.772Z,9.56
2022-11-28T14:34:02.595Z,9.53
2022-11-28T14:36:29.979Z,9.58
2022-11-28T14:39:04.968Z,9.58
2022-11-28T14:41:31.513Z,9.55
2022-11-28T14:44:17.096Z,9.47
2022-11-28T14:47:02.396Z,9.36
2022-11-28T14:49:29.556Z,9.29
2022-11-28T14:52:38.598Z,9.40
2022-11-28T14:55:12.659Z,9.48
2022-11-28T14:57:51.186Z,9.36
2022-11-28T15:00:23.328Z,9.39
2022-11-28T15:02:54.847Z,9.31
2022-11-28T15:05:35.552Z,9.33
2022-11-28T15:08:14.142Z,9.28
2022-11-28T15:10:47.150Z,9.17
2022-11-28T15:13:21.170Z,9.21
2022-11-28T15:15:52.039Z,8.99
2022-11-28T15:18:19.701Z,8.98
2022-11-28T15:20:55.288Z,9.08
2022-11-28T15:23:26.617Z,8.99
2022-11-28T15:25:55.106Z,8.92
2022-11-28T15:28:23.768Z,8.96
2022-11-28T15:30:51.447Z,8.77
2022-11-28T15:33:18.109Z,8.69
2022-11-28T15:35:53.200Z,8.85
2022-11-28T15:38:19.724Z,9.00
2022-11-28T15:40:49.785Z,8.92
2022-11-28T15:43:16.982Z,8.80
2022-11-28T15:45:43.705Z,8.96
2022-11-28T15:48:29.185Z,9.04
2022-11-28T15:50:56.081Z,8.91
2022-11-28T15:53:22.950Z,8.85
2022-11-28T15:56:06.691Z,8.84
2022-11-28T15:58:33.314Z,8.86
2022-11-28T16:01:12.425Z,9.01
2022-11-28T16:03:45.097Z,9.09
2022-11-28T16:06:11.961Z,8.94
2022-11-28T16:08:46.087Z,8.77
2022-11-28T16:11:15.165Z,8.98
2022-11-28T16:13:43.274Z,8.83
2022-11-28T16:16:11.232Z,8.76
2022-11-28T16:18:37.721Z,8.79
2022-11-28T16:21:04.328Z,8.92
2022-11-28T16:23:34.676Z,8.66
2022-11-28T16:26:04.889Z,8.43
2022-11-28T16:28:39.055Z,8.53
2022-11-28T16:31:12.329Z,8.55
2022-11-28T16:33:40.144Z,8.47
2022-11-28T16:36:16.065Z,8.55
2022-11-28T16:38:43.454Z,8.68
2022-11-28T16:41:32.014Z,8.71
2022-11-28T16:44:05.862Z,8.42
2022-11-28T16:46:34.108Z,8.29
2022-11-28T16:49:00.733Z,8.30
2022-11-28T16:51:32.830Z,8.26
2022-11-28T16:54:00.139Z,8.41
2022-11-28T16:56:42.394Z,8.35
2022-11-28T16:59:16.538Z,8.39
2022-11-28T17:01:44.059Z,8.33
2022-11-28T17:04:27.164Z,8.27
2022-11-28T17:06:54.378Z,8.47
2022-11-28T17:09:21.412Z,8.40
2022-11-28T17:11:54.532Z,8.36
2022-11-28T17:14:21.011Z,8.38
2022-11-28T17:16:47.587Z,8.57
2022-11-28T17:19:14.144Z,8.63
2022-11-28T17:21:41.194Z,8.49
2022-11-28T17:24:15.280Z,8.42
2022-11-28T17:26:42.307Z,8.30
2022-11-28T17:29:12.315Z,8.30
2022-11-28T17:31:42.185Z,8.19
2022-11-28T17:34:16.135Z,8.20
2022-11-28T17:36:43.448Z,8.06
2022-11-28T17:39:10.554Z,8.13
2022-11-28T17:41:42.318Z,8.09
2022-11-28T17:44:22.422Z,8.21
2022-11-28T17:46:54.305Z,8.15
2022-11-28T17:49:21.387Z,8.14
2022-11-28T17:51:49.296Z,8.17
2022-11-28T17:54:17.826Z,8.30
2022-11-28T17:56:45.213Z,8.42
2022-11-28T17:59:12.474Z,8.44
2022-11-28T18:01:39.202Z,8.48
2022-11-28T18:04:05.771Z,8.27
2022-11-28T18:06:32.632Z,8.30
2022-11-28T18:08:59.614Z,8.29
2022-11-28T18:11:26.419Z,8.36
2022-11-28T18:13:53.823Z,8.33
2022-11-28T18:16:22.891Z,8.30
2022-11-28T18:18:49.542Z,8.34
2022-11-28T18:21:16.141Z,8.29
2022-11-28T18:23:44.537Z,8.35
2022-11-28T18:26:12.418Z,8.33
2022-11-28T18:28:39.177Z,8.29
2022-11-28T18:31:12.035Z,8.38
2022-11-28T18:33:39.748Z,8.36
2022-11-28T18:36:10.945Z,8.36
2022-11-28T18:38:38.643Z,8.37
2022-11-28T18:41:09.444Z,8.32
2022-11-28T18:43:36.237Z,8.31
2022-11-28T18:46:07.397Z,8.28
2022-11-28T18:48:36.087Z,8.38
2022-11-28T18:51:09.325Z,8.48
2022-11-28T18:53:35.821Z,8.47
2022-11-28T18:56:03.201Z,8.61
2022-11-28T18:58:33.007Z,8.67
2022-11-28T19:01:10.241Z,8.72
2022-11-28T19:03:37.795Z,8.71
2022-11-28T19:06:05.313Z,8.76
2022-11-28T19:08:31.958Z,8.70
2022-11-28T19:11:01.641Z,8.75
2022-11-28T19:13:28.201Z,8.59
2022-11-28T19:15:54.858Z,8.59
2022-11-28T19:18:22.618Z,8.38
2022-11-28T19:20:49.323Z,8.28
2022-11-28T19:23:17.308Z,8.30
2022-11-28T19:25:46.624Z,8.52
2022-11-28T19:28:13.736Z,8.63
2022-11-28T19:30:40.605Z,8.74
2022-11-28T19:33:07.432Z,8.52
2022-11-28T19:35:34.522Z,8.51
2022-11-28T19:38:01.787Z,8.53
2022-11-28T19:40:28.381Z,8.55
2022-11-28T19:42:54.898Z,8.50
2022-11-28T19:45:22.516Z,8.40
2022-11-28T19:47:49.214Z,8.30
2022-11-28T19:50:15.820Z,8.26
2022-11-28T19:52:42.326Z,8.21
2022-11-28T19:55:08.928Z,8.15
2022-11-28T19:57:36.118Z,8.27
2022-11-28T20:00:02.830Z,8.25
2022-11-28T20:02:29.557Z,8.19
2022-11-28T20:04:56.082Z,8.23
2022-11-28T20:07:23.314Z,8.28
2022-11-28T20:09:50.573Z,8.43
2022-11-28T20:12:17.129Z,8.53
2022-11-28T20:14:43.684Z,8.55
2022-11-28T20:17:11.188Z,8.46
2022-11-28T20:19:40.158Z,8.57
2022-11-28T20:22:06.845Z,8.51
2022-11-28T20:24:33.915Z,8.52
2022-11-28T20:27:00.832Z,8.55
2022-11-28T20:29:28.480Z,8.44
2022-11-28T20:31:57.440Z,8.52
2022-11-28T20:34:24.391Z,8.52
2022-11-28T20:36:51.626Z,8.43
2022-11-28T20:39:18.335Z,8.51
2022-11-28T20:41:44.894Z,8.46
2022-11-28T20:44:11.505Z,8.41
2022-11-28T20:46:39.916Z,8.42
2022-11-28T20:49:06.764Z,8.41
2022-11-28T20:51:33.999Z,8.39
2022-11-28T20:54:01.114Z,8.37
2022-11-28T20:56:32.009Z,8.36
2022-11-28T20:58:59.576Z,8.46
2022-11-28T21:01:26.692Z,8.39
2022-11-28T21:03:53.411Z,8.43
2022-11-28T21:06:20.175Z,8.34
2022-11-28T21:08:46.794Z,8.34
2022-11-28T21:11:30.582Z,8.45
2022-11-28T21:14:01.197Z,8.41
2022-11-28T21:16:28.712Z,8.40
2022-11-28T21:18:56.329Z,8.38
2022-11-28T21:21:23.964Z,8.38
2022-11-28T21:23:50.579Z,8.37
2022-11-28T21:26:18.282Z,8.38
2022-11-28T21:28:45.518Z,8.39
2022-11-28T21:31:16.476Z,8.40
2022-11-28T21:33:43.021Z,8.43
2022-11-28T21:36:10.219Z,8.46
2022-11-28T21:38:36.692Z,8.50
2022-11-28T21:41:03.242Z,8.52
2022-11-28T21:43:31.659Z,8.54
2022-11-28T21:46:02.675Z,8.50
2022-11-28T21:48:30.450Z,8.48
2022-11-28T21:50:57.575Z,8.51
2022-11-28T21:53:24.705Z,8.67
2022-11-28T21:55:52.451Z,8.66
2022-11-28T21:58:23.688Z,8.53
2022-11-28T22:00:59.164Z,8.53
2022-11-28T22:03:26.362Z,8.51
2022-11-28T22:05:59.286Z,8.58
2022-11-28T22:08:25.775Z,8.60
2022-11-28T22:10:52.319Z,8.50
2022-11-28T22:13:19.022Z,8.54
2022-11-28T22:15:45.644Z,8.46
2022-11-28T22:18:12.427Z,8.57
2022-11-28T22:20:43.760Z,8.58
2022-11-28T22:23:11.905Z,8.50
2022-11-28T22:25:39.110Z,8.44
2022-11-28T22:28:05.658Z,8.44
2022-11-28T22:30:32.405Z,8.43
2022-11-28T22:33:00.225Z,8.42
2022-11-28T22:35:27.372Z,8.35
2022-11-28T22:37:54.551Z,8.39
2022-11-28T22:40:21.237Z,8.40
2022-11-28T22:42:48.004Z,8.44
2022-11-28T22:45:14.620Z,8.44
2022-11-28T22:47:41.162Z,8.40
2022-11-28T22:50:08.064Z,8.39
2022-11-28T22:52:34.591Z,8.40
2022-11-28T22:55:01.390Z,8.47
2022-11-28T22:57:27.908Z,8.55
2022-11-28T22:59:54.411Z,8.50
2022-11-28T23:02:21.135Z,8.43
2022-11-28T23:04:48.631Z,8.40
2022-11-28T23:07:15.962Z,8.42
2022-11-28T23:09:43.093Z,8.38
2022-11-28T23:12:10.321Z,8.39
2022-11-28T23:14:36.955Z,8.33
2022-11-28T23:17:03.463Z,8.28
2022-11-28T23:19:31.207Z,8.32
2022-11-28T23:21:57.884Z,8.30
2022-11-28T23:24:24.662Z,8.27
2022-11-28T23:26:52.328Z,8.21
2022-11-28T23:29:19.220Z,8.27
2022-11-28T23:31:46.996Z,8.24
2022-11-28T23:34:14.004Z,8.21
2022-11-28T23:36:42.725Z,8.25
2022-11-28T23:39:13.794Z,8.28
2022-11-28T23:41:40.680Z,8.36
2022-11-28T23:44:07.454Z,8.42
2022-11-28T23:46:34.604Z,8.48
2022-11-28T23:49:01.122Z,8.57
2022-11-28T23:51:27.805Z,8.56
2022-11-28T23:53:54.458Z,8.50
2022-11-28T23:56:24.831Z,8.45
2022-11-28T23:58:51.741Z,8.59
